CheckWX is a tool to help pilots better visualize weather data.  It is not intended as a substitute for an official pre-flight weather briefing.

03:43:35 UTC

DNMN METAR
Minna Airport
Minna, Nigeria
Current

2 hours ago

DNMN 260200Z 23005KT 9999 SCT010 27/25 Q1008
Observed
May-26 @ 02:00 UTC
Wind
  • 230° at 5 KTS
Visibility
10,000+ meters
Flight Rules
VFR
Cloud Levels
  • Scattered at 1,000' AGL
Temperature
27°C / 81°F
Dewpoint
25°C / 77°F
Heat Index
31°C / 88°F
Humidity
89%
Altimeter
29.76" Hg
Pressure
1007.92 hPa
Previous

3 hours ago

DNMN 260100Z 23005KT 9999 SCT010 BKN010 27/25 Q1008
Observed
May-26 @ 01:00 UTC
Wind
  • 230° at 5 KTS
Visibility
10,000+ meters
Flight Rules
MVFR
Cloud Levels
  • Scattered at 1,000' AGL
  • Broken at 1,000' AGL
Temperature
27°C / 81°F
Dewpoint
25°C / 77°F
Heat Index
31°C / 88°F
Humidity
89%
Altimeter
29.76" Hg
Pressure
1007.92 hPa
Previous

8 hours ago

DNMN 252000Z 25006KT 9999 SCT012 FEW020CB 30/25 Q1007
Observed
May-25 @ 20:00 UTC
Wind
  • 250° at 6 KTS
Visibility
10,000+ meters
Flight Rules
VFR
Cloud Levels
  • Scattered at 1,200' AGL
  • Few at 2,000' AGL
Temperature
30°C / 86°F
Dewpoint
25°C / 77°F
Heat Index
36°C / 97°F
Humidity
75%
Altimeter
29.73" Hg
Pressure
1006.92 hPa